Berlin, New Hampshire
Current Conditions -  °F | °C
As of 2:38 AM on Thursday 23 Oct 2014 (Local Time) from KBML Reporting Station
Light Rain Light Rain  
Wind Chill: 41°   Ceiling: 1700
Heat Index: 45°   Visibility: 5mi
Dew Point: 43°   Wind: 8mph
Humidity: 93%   Direction: 350°N
Pressure: 30.01"   Gusts: NA
Location:  44.47°N, 71.18°W
Report Text: KBML 230638Z AUTO 35007KT 5SM -RA BR FEW010 OVC017 07/06 A3001 RMK AO2 RAB10 P0000 T00720061
Loading
Personal Weather Stations






























Interactive Weather Map
Tropical Storm Tracking
New forecast layout! Learn more

10-Day Weather Forecast

Advertisements
Track Severe Weather on mobile